Tiempo atmosférico en la estación meteorológica de Valencia De Alcántara, Cáceres (445 m.)



Fecha
DESCASC
Temp. máxima en grados centígrados (hora)
DESCASC
Temp. mínima en grados centígrados (hora)
DESCASC
Temp. media en grados centígrados
DESCASC
Racha de viento máxima en m/sg (hora)
DESCASC
Velocidad máxima media en intervalos de 10 minutos(hora)
DESCASC
Precipitaciones diarias en mm
DESCASC
Precipitaciones de 00:00 a 06:00 en mm
DESCASC
Precipitaciones de 06:00 a 12:00 en mm
DESCASC
Precipitaciones de 12:00 a 18:00 en mm
DESCASC
Precipitaciones de 18:00 a 24:00 en mm
DESCASC
17-10-2019 18.6 (16:50) 13.9 (01:30) 16.3 9.44 (14:20) 4.72 (09:00) 10 0 8 1.4 0.6
16-10-2019 19.5 (16:50) 8 (08:50) 13.8 9.44 (15:40) 4.72 (18:10) 0 0 0 0 0
15-10-2019 18.2 (16:30) 7.9 (08:50) 13.1 8.33 (16:30) 4.17 (16:30) -- -- -- -- 0
14-10-2019 17.9 (00:00) 11.1 (23:30) 14.5 16.11 (05:40) 7.5 (10:50) -- -- -- -- --
13-10-2019 23.3 (19:00) 14.5 (00:00) 18.9 8.89 (13:00) 5.28 (13:00) 0 0 0 0 0
12-10-2019 28.4 (16:50) 16.8 (00:00) 22.6 16.11 (17:30) 8.06 (18:10) 0 0 0 0 0
11-10-2019 28.5 (16:30) 15.3 (00:00) 21.9 10.83 (14:50) 6.11 (14:50) 0 0 0 0 0
10-10-2019 30.2 (18:00) 10.1 (00:00) 20.2 6.39 (17:10) 3.33 (17:10) 0 0 0 0 0
09-10-2019 28.6 (17:40) 16.3 (00:00) 22.4 8.33 (17:50) 4.44 (19:30) 0 0 0 0 0
08-10-2019 32.7 (16:40) 14.8 (00:00) 23.8 9.72 (20:00) 5.56 (20:00) 0 0 0 0 0
07-10-2019 32.2 (17:50) 13.4 (00:00) 22.8 6.67 (18:00) 3.33 (18:10) 0 0 0 0 0
06-10-2019 29.6 (18:20) 10.9 (00:00) 20.3 8.06 (14:30) 3.89 (14:10) 0 0 0 0 0
05-10-2019 27.3 (17:20) 9.6 (00:00) 18.4 7.5 (19:30) 4.17 (20:00) 0 0 0 0 0
04-10-2019 27.7 (18:20) 12.8 (00:00) 20.3 9.44 (21:20) 5 (20:00) 0 0 0 0 0
03-10-2019 27.8 (18:00) 10.5 (00:00) 19.1 8.89 (22:30) 5 (21:30) 0 0 0 0 0
02-10-2019 26.5 (18:20) 11.3 (00:00) 18.9 8.61 (00:10) 5.83 (00:10) 0 0 0 0 0
01-10-2019 25.3 (17:30) 14.4 (00:00) 19.8 11.67 (14:10) 6.39 (12:30) 0 0 0 0 0
30-09-2019 31.8 (17:10) 13.1 (00:00) 22.4 8.33 (18:30) 4.44 (18:40) 0 0 0 0 0
29-09-2019 30.3 (17:20) 12 (00:00) 21.1 7.22 (13:30) 3.33 (13:40) 0 0 0 0 0
28-09-2019 31 (17:20) 12 (00:00) 21.5 8.61 (16:40) 3.33 (15:00) 0 0 0 0 0
27-09-2019 29.5 (16:50) 12.5 (00:00) 21 8.06 (18:10) 4.17 (17:20) 0 0 0 0 0
26-09-2019 28.5 (18:20) 12.1 (00:00) 20.3 9.72 (15:00) 3.61 (21:20) 0 0 0 0 0
25-09-2019 25.5 (18:50) 11.7 (00:00) 18.6 9.72 (16:10) 5.28 (12:20) 0 0 0 0 0
24-09-2019 23.7 (13:50) 13.2 (00:00) 18.5 8.89 (14:40) 5.56 (17:30) 0 0 0 0 0
23-09-2019 25.8 (18:10) 11 (00:00) 18.4 8.06 (19:20) 3.89 (19:10) 0 0 0 0 0
22-09-2019 21.9 (16:50) 13.7 (00:00) 17.8 9.72 (01:50) 5.28 (16:50) 0.8 0.2 0.2 0.2 0.2
21-09-2019 21.8 (19:40) 16.3 (00:00) 19 11.39 (22:50) 6.11 (16:20) 2.2 0 1.4 0.4 0.4
20-09-2019 25.3 (13:50) 16.9 (00:00) 21.1 8.61 (15:30) 5.28 (19:10) 0 0 0 0 0
19-09-2019 29.4 (16:00) 15.6 (00:00) 22.5 9.44 (19:00) 4.17 (17:00) 0 0 0 0 0

Gráficas

Temp. máximas Temp. mínimas Temp. medias Precipitaciones Rachas de viento máximas Velocidades máximas media en intervalos de 10 minutos

Datos horarios

Fecha y hora oficial Temperatura (ºC) Velocidad del viento (km/h) Dirección del viento Racha (km/h) Dirección de racha Precipitación (mm) Presión (hPa) Tendencia (hPa) Humedad (%)
2019-10-18 23:00:00 14.9 8 Sudoeste 14 Sudoeste 0 963.9 -0.3 72
2019-10-18 22:00:00 15.4 8 Sudoeste 20 Sudoeste 0 964 -0.3 68
2019-10-18 21:00:00 15.9 12 Sudoeste 23 Sudoeste 0 964.2 -0.3 65
2019-10-18 20:00:00 16.3 12 Sudoeste 26 Oeste 0 964.2 -0.5 59
2019-10-18 19:00:00 16.7 14 Sudoeste 32 Sudoeste 0 964.3 -0.5 60
2019-10-18 18:00:00 17.5 18 Sudoeste 32 Sudoeste 0 964.5 -1 57
2019-10-18 17:00:00 18.3 17 Sudoeste 32 Oeste 0 964.7 -1.3 56
2019-10-18 16:00:00 18 17 Oeste 32 Sudoeste 0 964.8 -1.6 58
2019-10-18 15:00:00 18.2 18 Oeste 35 Oeste 0 965.5 -0.9 59
2019-10-18 14:00:00 17.6 21 Oeste 36 Oeste 0 966 -0.2 57
2019-10-18 13:00:00 16.9 21 Oeste 40 Oeste 0 966.4 0.4 59
2019-10-18 12:00:00 15.9 18 Oeste 36 Sudoeste 0 966.4 0.8 64
2019-10-18 11:00:00 15.6 17 Oeste 32 Oeste 0 966.2 0.4 64
2019-10-18 10:00:00 15 7 Sudoeste 18 Oeste 0 966 0.7 79
2019-10-18 09:00:00 14.7 12 Oeste 22 Sudoeste 0 965.6 0.4 82
2019-10-18 08:00:00 14.6 12 Oeste 25 Oeste 0 965.8 0.4 94
2019-10-18 07:00:00 16.2 12 Oeste 19 Noroeste 0 965.3 -0.2 93
2019-10-18 06:00:00 17.5 9 Sudoeste 22 Oeste 0.2 965.2 -0.6 90
2019-10-18 05:00:00 17.7 12 Sudoeste 32 Sudoeste 0 965.4 -0.7 91
2019-10-18 04:00:00 17.9 13 Sudoeste 41 Sur 0 965.5 -1.1 86
2019-10-18 03:00:00 17.6 14 Sudoeste 32 Sur 0 965.8 -0.9 89
2019-10-18 02:00:00 17.7 21 Sur 40 Sudoeste 0 966.1 -0.6 86
2019-10-18 01:00:00 17.8 11 Sudoeste 32 Sudoeste 0 966.6 0.1 86
2019-10-18 00:00:00 17.7 14 Sur 30 Sudoeste 0 966.7 0.1 86
2019-10-17 23:00:00 17.6 13 Sudoeste 24 Sudoeste 0 966.7 0.6 87
2019-10-17 22:00:00 17.6 8 Sudoeste 25 Sudoeste 0 966.5 0.5 91
2019-10-17 21:00:00 17.9 12 Sudoeste 26 Sudoeste 0.2 966.6 0.5 89
2019-10-17 20:00:00 18.3 8 Sudoeste 21 Sur 0 966.1 0 86
2019-10-17 19:00:00 18.4 7 Sur 23 Sur 0.4 966 -0.4 89
2019-10-17 18:00:00 17.3 10 Oeste 16 Oeste 0.8 966.1 -0.6 94
2019-10-17 17:00:00 18.4 8 Sur 26 Sur 0 966.1 -1.2 87
2019-10-17 16:00:00 18 11 Sur 26 Sur 0 966.4 -1 89
2019-10-17 15:00:00 17 12 Sur 34 Sudeste 0.4 966.7 -0.6 92
2019-10-17 14:00:00 16.8 17 Sur 26 Sudeste 0.2 967.3 0.4 91
2019-10-17 13:00:00 17.8 9 Sur 18 Sur 0 967.4 0.8 85
2019-10-17 12:00:00 16.6 14 Sur 22 Sur 0 967.3 1.4 88
2019-10-17 11:00:00 16.8 12 Sur 21 Sur 0 966.9 0.7 87
2019-10-17 10:00:00 15.1 13 Sur 26 Sur 0.4 966.6 0.9 92
2019-10-17 09:00:00 15 17 Sur 25 Sur 6.8 965.9 0.2 94
2019-10-17 08:00:00 15.2 6 Sudoeste 17 Sudoeste 0.8 966.2 0.1 91
2019-10-17 07:00:00 15.5 9 Sur 18 Sudoeste 0 965.7 -0.6 86
2019-10-17 06:00:00 15.5 5 Sur 16 Sudoeste 0 965.7 -0.9 83
2019-10-17 05:00:00 15.6 8 Sudoeste 24 Sudoeste 0 966.1 -0.8 82
2019-10-17 04:00:00 15.5 8 Sur 23 Sudoeste 0 966.3 -0.7 77
2019-10-17 03:00:00 15 6 Sudeste 17 Sudoeste 0 966.6 -0.7 78
2019-10-17 02:00:00 14.7 9 Sudoeste 21 Sudoeste 0 966.9 -0.4 76
2019-10-17 01:00:00 14.3 7 Sudeste 21 Sudeste 0 967 -0.3 77
2019-10-17 00:00:00 14.4 7 Sudeste 12 Sudeste 0 967.3 0.1 79
2019-10-16 23:00:00 15.3 9 Sudoeste 22 Sudoeste 0 967.3 0.5 73
2019-10-16 22:00:00 16.4 9 Sudoeste 16 Sudoeste 0 967.3 0.5 64
2019-10-16 21:00:00 17.1 5 Sudoeste 13 Sudoeste 0 967.2 0.5 59
2019-10-16 20:00:00 17.7 6 Sudoeste 18 Sudoeste 0 966.8 0 55
2019-10-16 19:00:00 18.3 9 Sudoeste 28 Sudoeste 0 966.8 -0.1 53
2019-10-16 18:00:00 19 11 Sudoeste 27 Sudoeste 0 966.7 -1.2 49
2019-10-16 17:00:00 19.2 11 Sudoeste 28 Sur 0 966.8 -2.1 48
2019-10-16 16:00:00 19 9 Sur 34 Sudoeste 0 966.9 -2.4 47
2019-10-16 15:00:00 18.8 12 Sudoeste 31 Sudoeste 0 967.9 -1.5 49
2019-10-16 14:00:00 17.6 10 Sudoeste 26 Sudoeste 0 968.9 -0.6 52
2019-10-16 13:00:00 17.4 10 Sur 21 Sur 0 969.3 0 54
2019-10-16 12:00:00 16 10 Sudoeste 23 Sudoeste 0 969.4 0.6 64
2019-10-16 11:00:00 14.1 6 Sur 15 Sur 0 969.5 0.9 73
2019-10-16 10:00:00 10.7 7 Sur 11 Sur 0 969.3 0.8 86
2019-10-16 09:00:00 8 5 Sur 10 Sur 0 968.8 0.1 89
2019-10-16 08:00:00 8.7 8 Sur 13 Sur 0 968.6 -0.4 87
2019-10-16 07:00:00 9.8 9 Sur 15 Sudoeste 0 968.5 -0.7 85
2019-10-16 06:00:00 10.4 7 Sur 14 Sudoeste 0 968.7 -0.9 85
2019-10-16 05:00:00 10.2 10 Sur 16 Sur 0 969 -0.8 84
2019-10-16 04:00:00 9.9 9 Sur 12 Sudoeste 0 969.2 -0.8 85
2019-10-16 03:00:00 10.5 6 Sudoeste 11 Sudoeste 0 969.6 -0.3 82
2019-10-16 02:00:00 11.3 8 Sur 13 Sudoeste 0 969.8 0.1 79
2019-10-16 01:00:00 11.4 9 Sur 14 Sudoeste 0 970 0.5 76
2019-10-16 00:00:00 10.7 6 Sudoeste 12 Sudoeste 0 969.9 0.5 75
2019-10-15 23:00:00 12.1 7 Sur 11 Sur 0 969.7 0.4 67
2019-10-15 22:00:00 12.7 7 Sur 12 Sur 0 969.5 0.3 66
2019-10-15 21:00:00 13.9 6 Sur 10 Sudoeste 0 969.4 0.2 64
2019-10-15 20:00:00 15.8 5 Sudoeste 17 Sudoeste 0 969.3 0 55
2019-10-15 19:00:00 17 10 Sudoeste 22 Oeste 0 969.2 -0.4 48
2019-10-15 18:00:00 17.3 12 Sudoeste 24 Sudoeste 0 969.2 -0.8 47
2019-10-15 17:00:00 17.3 11 Oeste 30 Sudoeste 0 969.3 -1.3 47
2019-10-15 16:00:00 17.8 12 Sudoeste 27 Oeste 0 969.6 -1.2 45
2019-10-15 15:00:00 17.3 10 Sudoeste 19 Sudoeste 0 970 -0.9 52
2019-10-15 14:00:00 16.6 6 Oeste 16 Noroeste -- 970.6 -0.1 54
2019-10-15 13:00:00 15.1 7 Noroeste 15 Noroeste -- 970.8 0.8 65
2019-10-15 12:00:00 14.5 4 Noroeste 10 Norte -- 970.9 1.3 68
2019-10-15 11:00:00 12.7 3 Nordeste 9 Noroeste -- 970.7 1.1 77
2019-10-15 10:00:00 9.6 4 Sudoeste 8 Sur -- 970 0.7 86
2019-10-15 09:00:00 7.9 4 Sur 9 Sudoeste -- 969.6 0.5 90
2019-10-15 08:00:00 8.5 4 Sur 7 Sudoeste -- 969.6 0.7 90
2019-10-15 07:00:00 8.9 3 Sudoeste 15 Sudoeste -- 969.3 0.3 85
2019-10-15 06:00:00 9.3 8 Sudoeste 17 Sudoeste -- 969.1 0 86
2019-10-15 05:00:00 8.6 6 Sudoeste 12 Oeste -- 968.9 0 87
2019-10-15 04:00:00 9 8 Sudoeste 14 Sudoeste -- 969 0.3 86
2019-10-15 03:00:00 10.3 9 Oeste 15 Oeste -- 969.1 0.6 81
2019-10-15 02:00:00 10.5 7 Oeste 19 Oeste -- 968.9 0.9 80
2019-10-15 01:00:00 10.9 12 Oeste 22 Oeste -- 968.7 1.2 77
2019-10-15 00:00:00 11.1 12 Oeste 21 Oeste -- 968.5 1.7 76
2019-10-14 23:00:00 11.2 12 Oeste 19 Oeste -- 968 2 74
2019-10-14 22:00:00 11.7 9 Oeste 24 Sudoeste -- 967.5 2.7 71
2019-10-14 21:00:00 12.7 10 Oeste 31 Oeste -- 966.8 2.9 64
2019-10-14 20:00:00 14.3 18 Oeste 36 Oeste -- 966 2.5 58
2019-10-14 19:00:00 15.6 20 Oeste 45 Oeste -- 964.8 1.8 55
2019-10-14 18:00:00 16.4 22 Oeste 43 Sudoeste -- 963.9 0.8 55
2019-10-14 17:00:00 15.7 20 Oeste 36 Oeste -- 963.5 0.4 72
2019-10-14 16:00:00 14.5 16 Sudoeste 31 Oeste -- 963 0.2 79
2019-10-14 15:00:00 13.6 15 Oeste 45 Sudoeste -- 963.1 0.4 80
2019-10-14 14:00:00 14.1 19 Sudoeste 39 Sudoeste -- 963.1 0.9 81
2019-10-14 13:00:00 14.4 16 Sudoeste 36 Sur -- 962.8 1.1 86
2019-10-14 12:00:00 15.7 17 Sudoeste 42 Sur -- 962.7 1.7 70
2019-10-14 11:00:00 14.5 27 Sudoeste 44 Sudoeste -- 962.2 1.7 76
2019-10-14 10:00:00 13.1 17 Sudoeste 35 Sudoeste 0.2 961.7 2.1 81
2019-10-14 09:00:00 12.6 8 Sudoeste 33 Oeste 0.2 961 2 86
2019-10-14 08:00:00 12.8 14 Sudoeste 34 Oeste 0.2 960.5 3 88
2019-10-14 07:00:00 13.2 21 Oeste 41 Sudoeste 0.2 959.6 0.8 90
2019-10-14 06:00:00 13.7 22 Oeste -- -- 0.6 959 -0.1 90
2019-10-14 05:00:00 16.4 11 Sudeste 25 Sudeste 0 957.5 -1.6 76
2019-10-14 04:00:00 16.2 4 Sudeste 15 Sudoeste 0 958.8 -1.2 76
2019-10-14 03:00:00 16.6 10 Sudoeste 20 Sudoeste 0 959.1 -1.3 75
2019-10-14 02:00:00 16.5 12 Sudoeste 23 Sudoeste 0 959.1 -1.4 75
2019-10-14 01:00:00 16.9 16 Sudoeste 26 Oeste 0 960 -0.3 74
2019-10-14 00:00:00 17.9 10 Sudoeste 26 Sudoeste 0 960.4 -0.2 67
2019-10-13 23:00:00 18.6 14 Sudoeste 26 Oeste 0 960.5 -0.1 66
2019-10-13 22:00:00 19.9 9 Sudeste 15 Sudeste 0 960.3 -0.3 54
2019-10-13 21:00:00 20.7 9 Sur 17 Sur 0 960.6 -0.6 51
2019-10-13 20:00:00 22 8 Sur 25 Sur 0 960.6 -1.1 48
2019-10-13 19:00:00 23 15 Sur 31 Sudeste 0 960.6 -2.1 45
2019-10-13 18:00:00 22.9 14 Sudeste 32 Sudeste 0 961.2 -1.9 46
2019-10-13 17:00:00 22.3 15 Sudeste 27 Sudeste 0 961.7 -2.6 49
2019-10-13 16:00:00 21.2 10 Sudeste 22 Sur 0 962.7 -1.7 53
2019-10-13 15:00:00 20.5 10 Sur 28 Sudeste 0 963.1 -1.2 57
2019-10-13 14:00:00 18.3 17 Sur 30 Sur 0 964.3 0.2 69
2019-10-13 13:00:00 18 19 Sudeste 32 Sudeste 0 964.4 0.6 71
2019-10-13 12:00:00 17.2 11 Sudeste 23 Sudeste 0 964.3 1.1 76
2019-10-13 11:00:00 16.1 12 Sudeste 22 Sudeste 0 964.1 0.8 80
2019-10-13 10:00:00 15.4 10 Este 19 Este 0 963.8 0.5 84
2019-10-13 09:00:00 16 6 Sur 18 Sur 0 963.2 0.3 80
2019-10-13 08:00:00 15.9 12 Sur 22 Sudoeste 0 963.3 0.5 79
2019-10-13 07:00:00 15.9 0 Calma 10 Sudeste 0 963.3 0.2 78
2019-10-13 06:00:00 15.5 3 Sur 13 Sudoeste 0 962.9 -0.2 78
2019-10-13 05:00:00 15 5 Sur 14 Sur 0 962.8 -0.3 79
2019-10-13 04:00:00 15.1 5 Sur 12 Sudeste 0 963.1 -0.2 75
2019-10-13 03:00:00 15.1 6 Este 14 Este 0 963.1 0.1 72
2019-10-13 02:00:00 15.5 4 Este 24 Sudoeste 0 963.1 0.3 71
2019-10-13 01:00:00 16.1 11 Sudoeste 25 Sudoeste 0 963.3 0.9 72
2019-10-13 00:00:00 16.8 12 Sudoeste 21 Sudoeste 0 963 1 68
2019-10-12 23:00:00 17.6 11 Sudoeste 24 Sudoeste 0 962.8 1.4 63
2019-10-12 22:00:00 19 12 Sudoeste 29 Sudoeste 0 962.4 1.5 68
2019-10-12 21:00:00 20.5 15 Sudoeste 34 Sudoeste 0 962 1.3 66
2019-10-12 20:00:00 22.8 17 Sudoeste 37 Sudoeste 0 961.4 0.6 62
2019-10-12 19:00:00 26.1 17 Sudoeste 55 Sur 0 960.9 -0.3 51
2019-10-12 18:00:00 27.3 24 Sur 58 Sur 0 960.7 -1.2 36
2019-10-12 17:00:00 28 27 Sur 54 Sur 0 960.8 -1.9 33
2019-10-12 16:00:00 28 22 Sur 46 Sudeste 0 961.2 -2.2 36
2019-10-12 15:00:00 27.5 21 Sur 45 Sur 0 961.9 -2.2 40
2019-10-12 14:00:00 26.4 21 Sur 46 Sur 0 962.7 -1 43
2019-10-12 13:00:00 24.8 22 Sur 38 Sudeste 0 963.4 0.2 47
2019-10-12 12:00:00 24.4 18 Sur 31 Sudeste 0 964.1 1 51
2019-10-12 11:00:00 22.1 4 Sudeste 20 Sudeste 0 963.7 0.7 57
2019-10-12 10:00:00 20.3 10 Sudeste 18 Sur 0 963.2 -0.2 66
2019-10-12 09:00:00 20 10 Sudeste 16 Sudeste 0 963.1 0.1 66
2019-10-12 08:00:00 19.4 5 Sudeste 11 Sudeste 0 963 -0.1 67
2019-10-12 07:00:00 20.8 3 Norte 11 Noroeste 0 963.4 -0.3 61
2019-10-12 06:00:00 21.6 5 Este 21 Sur 0 963 -0.9 57
2019-10-12 05:00:00 21.8 6 Sudeste 18 Sur 0 963.1 -1.4 56
2019-10-12 04:00:00 21.9 10 Sur 21 Sur 0 963.7 -1.2 56
2019-10-12 03:00:00 21.9 13 Sudeste 23 Sudeste 0 963.9 -1.1 58
2019-10-12 02:00:00 21.9 5 Norte 23 Sur 0 964.5 0.1 59
2019-10-12 01:00:00 22.4 10 Sur 20 Sudoeste 0 964.9 0.5 56
2019-10-12 00:00:00 22.9 5 Sudoeste 23 Sur 0 965 0.9 50
2019-10-11 23:00:00 23.3 12 Sur 25 Sur 0 964.4 0.3 48
2019-10-11 22:00:00 23.9 8 Sur 19 Sudoeste 0 964.4 0.1 45
2019-10-11 21:00:00 24.4 6 Sudeste 21 Sudoeste 0 964.1 0 43
2019-10-11 20:00:00 25.1 12 Sur 31 Sur 0 964.1 -0.4 41
2019-10-11 19:00:00 26.3 17 Sur 33 Sur 0 964.3 -0.6 35
2019-10-11 18:00:00 27.7 11 Sur 26 Sudeste 0 964.1 -1.5 30
2019-10-11 17:00:00 28.2 10 Sur 26 Sudeste 0 964.5 -1.9 29
2019-10-11 16:00:00 27.9 14 Sudeste 37 Sudeste 0 964.9 -1.8 32
2019-10-11 15:00:00 26.9 21 Sudeste 39 Sudeste 0 965.6 -1.7 34
2019-10-11 14:00:00 27.2 15 Este 24 Este 0 966.4 -0.8 34
2019-10-11 13:00:00 26 10 Este 22 Sudeste 0 966.7 0.1 36
2019-10-11 12:00:00 25.3 11 Sudeste 21 Sudeste 0 967.3 1.2 34
2019-10-11 11:00:00 22.8 7 Sudeste 21 Sur 0 967.2 1.3 39
2019-10-11 10:00:00 19.6 3 Este 11 Sur 0 966.6 1 43
2019-10-11 09:00:00 15.5 4 Sur 8 Sudeste 0 966.1 0.5 51
2019-10-11 08:00:00 15.7 0 Calma 10 Sudoeste 0 965.9 0.3 49
2019-10-11 07:00:00 15.8 6 Sur 10 Sur 0 965.6 -0.1 51
2019-10-11 06:00:00 16.4 6 Sur 12 Sudoeste 0 965.6 -0.3 50
2019-10-11 05:00:00 16.7 8 Sudoeste 12 Sudoeste 0 965.6 -0.5 47
2019-10-11 04:00:00 16.9 8 Sur 11 Sur 0 965.7 -0.6 42
2019-10-11 03:00:00 17.6 4 Sur 9 Sudoeste 0 965.9 -0.4 40
2019-10-11 02:00:00 17.8 6 Sur 11 Sudoeste 0 966.1 0 40
2019-10-11 01:00:00 18 7 Sudoeste 12 Sudoeste 0 966.3 0.6 41
2019-10-11 00:00:00 18.7 8 Sudoeste 12 Sudoeste 0 966.3 0.9 40
2019-10-10 23:00:00 19.6 7 Sudoeste 9 Sudoeste 0 966.1 0.8 38
2019-10-10 22:00:00 20.8 6 Sur 10 Sudoeste 0 965.7 0.6 35
2019-10-10 21:00:00 24.1 4 Sudoeste 10 Noroeste 0 965.4 0.4 27
2019-10-10 20:00:00 27.3 5 Noroeste 11 Noroeste 0 965.3 0.2 22
2019-10-10 19:00:00 29.4 6 Noroeste 19 Norte 0 965.1 -0.5 18
2019-10-10 18:00:00 30.1 3 Sur 23 Sudeste 0 965 -1 17
2019-10-10 17:00:00 29.6 8 Este 20 Este 0 965.1 -1.8 17
2019-10-10 16:00:00 29.3 10 Este 20 Norte 0 965.6 -1.8 18
2019-10-10 15:00:00 27.2 9 Norte 19 Nordeste 0 966 -1.3 23
2019-10-10 14:00:00 25.2 5 Nordeste 18 Norte 0 966.9 -0.2 28
2019-10-10 13:00:00 23.9 4 Este 12 Norte 0 967.4 0.4 31
2019-10-10 12:00:00 20.9 5 Norte 13 Nordeste 0 967.3 1 35
2019-10-10 11:00:00 19.1 5 Nordeste 10 Nordeste 0 967.1 1.1 39
2019-10-10 10:00:00 13.6 6 Sur 10 Sudoeste 0 967 1.2 52
2019-10-10 09:00:00 10.4 7 Sur 10 Sur 0 966.3 0.6 60
2019-10-10 08:00:00 10.1 8 Sur 11 Sur 0 966 0 61
2019-10-10 07:00:00 10.9 6 Sur 10 Sur 0 965.8 -0.1 58
2019-10-10 06:00:00 11.5 8 Sur 12 Sur 0 965.7 -0.4 55
2019-10-10 05:00:00 11.9 7 Sudoeste 11 Sudoeste 0 966 -0.3 53
2019-10-10 04:00:00 12.7 7 Sur 10 Sur 0 965.9 -0.7 50
2019-10-10 03:00:00 13.8 8 Sudoeste 12 Sudoeste 0 966.1 -0.6 47
2019-10-10 02:00:00 14.9 8 Sudoeste 11 Sudoeste 0 966.3 -0.2 43
2019-10-10 01:00:00 16.8 7 Sur 10 Sudoeste 0 966.6 0.5 38
2019-10-10 00:00:00 18.8 6 Sur 17 Oeste 0 966.7 1 31
2019-10-09 23:00:00 20.4 9 Oeste 18 Oeste 0 966.5 1.2 27
2019-10-09 22:00:00 21.7 9 Oeste 22 Noroeste 0 966.1 1.3 21
2019-10-09 21:00:00 23.1 11 Noroeste 18 Noroeste 0 965.7 0.9 20
2019-10-09 20:00:00 24.8 11 Noroeste 25 Norte 0 965.3 0.1 16
2019-10-09 19:00:00 27.5 14 Noroeste 26 Norte 0 964.8 -0.7 9
2019-10-09 18:00:00 28.1 14 Noroeste 30 Noroeste 0 964.8 -1.2 13
2019-10-09 17:00:00 28.1 12 Noroeste 23 Noroeste 0 965.2 -1.4 8
2019-10-09 16:00:00 27.4 13 Noroeste 26 Noroeste 0 965.5 -1.5 10
2019-10-09 15:00:00 26.4 12 Noroeste 26 Noroeste 0 966 -1.3 19
2019-10-09 14:00:00 24.2 8 Oeste 20 Oeste 0 966.6 -0.4 36
2019-10-09 13:00:00 22.3 8 Oeste 17 Noroeste 0 967 0.6 46
2019-10-09 12:00:00 19.4 10 Noroeste 26 Noroeste 0 967.3 1.3 55
2019-10-09 11:00:00 18.1 15 Noroeste 27 Noroeste 0 967 1 67
2019-10-09 10:00:00 17.6 6 Sudoeste 17 Oeste 0 966.4 0.9 73
2019-10-09 09:00:00 16.3 10 Oeste 17 Oeste 0 966 0.8 81
2019-10-09 08:00:00 16.7 10 Oeste 18 Oeste 0 966 0.7 83
2019-10-09 07:00:00 17.2 5 Sudoeste 11 Oeste 0 965.5 0.1 80
2019-10-09 06:00:00 17.5 7 Sudoeste 12 Sudoeste 0 965.2 -0.3 78
2019-10-09 05:00:00 18.5 7 Oeste 17 Oeste 0 965.3 -0.2 76
2019-10-09 04:00:00 19.1 10 Oeste 15 Oeste 0 965.4 -0.3 72
2019-10-09 03:00:00 19.4 8 Sudoeste 15 Oeste 0 965.5 -0.4 72
2019-10-09 02:00:00 19.7 4 Oeste 11 Oeste 0 965.5 -0.2 71
2019-10-09 01:00:00 20.6 4 Sudoeste 10 Sudoeste 0 965.7 0.3 65
2019-10-09 00:00:00 22.1 7 Sudoeste 12 Oeste 0 965.9 0.7 62
2019-10-08 23:00:00 23 6 Sur 17 Oeste 0 965.7 1.1 61
2019-10-08 22:00:00 24.2 11 Oeste 30 Oeste 0 965.4 1.1 57
2019-10-08 21:00:00 25.8 17 Oeste 31 Sudoeste 0 965.2 0.8 50
2019-10-08 20:00:00 28.2 20 Oeste 35 Oeste 0 964.6 0.1 42
2019-10-08 19:00:00 31.1 13 Oeste 22 Noroeste 0 964.3 -0.7 23
2019-10-08 18:00:00 32 12 Oeste 23 Noroeste 0 964.4 -1 21
2019-10-08 17:00:00 32.3 12 Noroeste 24 Noroeste 0 964.5 -1.9 21
2019-10-08 16:00:00 32.1 10 Noroeste 20 Noroeste 0 965 -2.1 21
2019-10-08 15:00:00 31.5 5 Sudoeste 17 Noroeste 0 965.4 -2 21
2019-10-08 14:00:00 30.1 6 Norte 16 Norte 0 966.4 -0.9 23
2019-10-08 13:00:00 28.8 4 Norte 12 Noroeste 0 967.1 0.2 25
2019-10-08 12:00:00 26.8 4 Norte 12 Este 0 967.4 0.6 28
2019-10-08 11:00:00 24 2 Oeste 7 Sudoeste 0 967.3 0.9 34
2019-10-08 10:00:00 17.8 5 Sur 9 Sudoeste 0 966.9 0.6 49
2019-10-08 09:00:00 15.2 7 Sudoeste 10 Sudoeste 0 966.8 0.8 55
2019-10-08 08:00:00 14.9 8 Sudoeste 10 Sudoeste 0 966.4 0.4 56
2019-10-08 07:00:00 15.4 6 Sur 10 Sur 0 966.3 -0.1 54
2019-10-08 06:00:00 15.7 6 Sur 10 Sudoeste 0 966 -0.7 53
2019-10-08 05:00:00 16.4 7 Sur 11 Sur 0 966 -0.7 51
2019-10-08 04:00:00 16.9 7 Sur 10 Sur 0 966.4 -0.5 50
2019-10-08 03:00:00 17.4 7 Sur 11 Sudoeste 0 966.7 -0.3 48
2019-10-08 02:00:00 18.2 6 Sur 9 Sur 0 966.7 -0.4 45
2019-10-08 01:00:00 18.7 6 Sur 10 Sudoeste 0 966.9 0.2 43
2019-10-08 00:00:00 19.8 6 Sur 9 Sur 0 967 0.7 38
2019-10-07 23:00:00 22 7 Sur 10 Sur 0 967.1 0.9 33
2019-10-07 22:00:00 23.8 7 Sudoeste 13 Sudoeste 0 966.7 0.5 29
2019-10-07 21:00:00 25.8 4 Sur 7 Noroeste 0 966.3 0 21
2019-10-07 20:00:00 29 5 Oeste 13 Noroeste 0 966.2 -0.3 17
2019-10-07 19:00:00 30.3 8 Noroeste 19 Norte 0 966.2 -0.7 17
2019-10-07 18:00:00 31.3 12 Noroeste 24 Noroeste 0 966.3 -1.1 17
2019-10-07 17:00:00 31.5 9 Noroeste 22 Noroeste 0 966.5 -1.5 17
2019-10-07 16:00:00 30.9 5 Noroeste 17 Noroeste 0 966.9 -1.4 18
2019-10-07 15:00:00 29.8 7 Oeste 15 Oeste 0 967.4 -1.3 18
2019-10-07 14:00:00 28.2 8 Norte 16 Norte 0 968 -0.8 19
2019-10-07 13:00:00 26.2 8 Noroeste 14 Noroeste 0 968.3 0.2 30
2019-10-07 12:00:00 23.1 6 Noroeste 12 Noroeste 0 968.7 1.1 43
2019-10-07 11:00:00 21 5 Noroeste 13 Oeste 0 968.8 1.3 52
2019-10-07 10:00:00 17.3 6 Sudoeste 9 Sur 0 968.1 1 63
2019-10-07 09:00:00 13.8 7 Sur 10 Sudoeste 0 967.6 0.4 74
2019-10-07 08:00:00 13.4 6 Sudoeste 10 Sudoeste 0 967.5 0.4 74
2019-10-07 07:00:00 14.1 6 Sur 12 Sudoeste 0 967.1 -0.7 72
2019-10-07 06:00:00 14.3 8 Sur 10 Sur 0 967.2 -1.1 71
2019-10-07 05:00:00 15 6 Sur 10 Sudoeste 0 967.1 -1.4 67
2019-10-07 04:00:00 16.4 8 Sur 10 Sudoeste 0 967.8 -1.1 63
2019-10-07 03:00:00 16 5 Sudoeste 9 Sur 0 968.3 -0.5 61
2019-10-07 02:00:00 17.5 5 Sur 9 Sur 0 968.5 -0.1 57
2019-10-07 01:00:00 18.4 5 Sudoeste 8 Sudoeste 0 968.9 0.9 54
2019-10-07 00:00:00 20.8 5 Sudoeste 10 Oeste 0 968.8 1.2 49
2019-10-06 23:00:00 22.2 5 Oeste 23 Sudoeste 0 968.6 1.1 47
2019-10-06 22:00:00 23.4 10 Oeste 20 Oeste 0 968 0.7 44
2019-10-06 21:00:00 24.9 11 Oeste 19 Oeste 0 967.6 0.2 35
2019-10-06 20:00:00 27.4 8 Oeste 18 Oeste 0 967.5 0 21
2019-10-06 19:00:00 28.9 9 Oeste 21 Oeste 0 967.3 -0.6 19
2019-10-06 18:00:00 29.1 11 Noroeste 21 Noroeste 0 967.4 -1.1 19
2019-10-06 17:00:00 28.9 9 Oeste 22 Noroeste 0 967.5 -1.6 23
2019-10-06 16:00:00 28.4 8 Oeste 23 Norte 0 967.9 -1.5 22
2019-10-06 15:00:00 27.1 11 Noroeste 29 Norte 0 968.5 -0.9 29
2019-10-06 14:00:00 25.8 10 Noroeste 20 Noroeste 0 969.1 0.1 35
2019-10-06 13:00:00 23.7 7 Noroeste 21 Norte 0 969.4 1.3 38
2019-10-06 12:00:00 21.1 8 Noroeste 14 Norte 0 969.4 1.6 48
2019-10-06 11:00:00 18.2 5 Noroeste 10 Noroeste 0 969 1.6 55
2019-10-06 10:00:00 14.6 2 Sudoeste 7 Sudoeste 0 968.1 1.1 65
2019-10-06 09:00:00 11.2 8 Sudoeste 12 Sudoeste 0 967.8 1 76
2019-10-06 08:00:00 11.7 9 Sudoeste 12 Oeste 0 967.4 0.7 73
2019-10-06 07:00:00 11.9 8 Sudoeste 13 Sudoeste 0 967 -0.1 71
2019-10-06 06:00:00 12.7 8 Sudoeste 12 Sudoeste 0 966.8 -0.2 67
2019-10-06 05:00:00 12.4 8 Sur 13 Sudoeste 0 966.7 0 68
2019-10-06 04:00:00 12.7 5 Sur 9 Sudoeste 0 967.1 -0.1 67
2019-10-06 03:00:00 13.8 6 Sur 12 Sur 0 967 -0.4 65
2019-10-06 02:00:00 14.7 8 Sur 14 Sudeste 0 966.7 0.1 64
2019-10-06 01:00:00 14.7 8 Sudoeste 12 Noroeste 0 967.2 1.2 64
2019-10-06 00:00:00 16.7 7 Noroeste 14 Oeste 0 967.4 1.5 62
2019-10-05 23:00:00 17.8 6 Noroeste 14 Sur 0 966.6 1.1 55
2019-10-05 22:00:00 19.8 8 Oeste 23 Oeste 0 966 0.7 49
2019-10-05 21:00:00 21.4 15 Oeste 25 Oeste 0 965.9 0.8 44
2019-10-05 20:00:00 24 15 Oeste 27 Oeste 0 965.5 0.5 38
2019-10-05 19:00:00 26.4 12 Oeste 22 Oeste 0 965.3 0 31
2019-10-05 18:00:00 27 10 Oeste 20 Oeste 0 965.1 -0.8 30
2019-10-05 17:00:00 27.1 11 Noroeste 26 Noroeste 0 965 -1.3 35
2019-10-05 16:00:00 26.1 10 Norte 19 Noroeste 0 965.3 -1.3 39
2019-10-05 15:00:00 24.7 7 Norte 17 Noroeste 0 965.9 -0.5 44
2019-10-05 14:00:00 23.5 5 Nordeste 17 Norte 0 966.3 0.3 48
2019-10-05 13:00:00 21.2 5 Noroeste 13 Norte 0 966.6 1 54
2019-10-05 12:00:00 18.5 4 Norte 11 Noroeste 0 966.4 1.5 62
2019-10-05 11:00:00 17.1 0 Calma 5 Noroeste 0 966 1.5 63
2019-10-05 10:00:00 13.5 2 Norte 6 Sudoeste 0 965.6 1.4 75
2019-10-05 09:00:00 9.9 4 Sur 9 Sudoeste 0 964.9 0.7 82
2019-10-05 08:00:00 9.6 5 Sudoeste 8 Sudoeste 0 964.5 0.2 82
2019-10-05 07:00:00 9.9 4 Sur 7 Sur 0 964.2 -0.5 80
2019-10-05 06:00:00 10.2 5 Sur 9 Sur 0 964.2 -0.8 83
2019-10-05 05:00:00 10.7 5 Sudoeste 7 Sudoeste 0 964.3 -0.8 82
2019-10-05 04:00:00 12.1 0 Calma 4 Norte 0 964.7 -0.7 81
2019-10-05 03:00:00 13.6 0 Calma 10 Noroeste 0 965 -0.5 81
2019-10-05 02:00:00 15.7 6 Sudoeste 12 Sudoeste 0 965.1 -0.2 69
2019-10-05 01:00:00 15.9 3 Oeste 12 Oeste 0 965.4 0.2 73
2019-10-05 00:00:00 16.8 8 Noroeste 16 Oeste 0 965.5 0.5 70
2019-10-04 23:00:00 18.3 10 Oeste 21 Oeste 0 965.3 0.6 66
2019-10-04 22:00:00 19.7 12 Oeste 34 Oeste 0 965.2 0.9 63
2019-10-04 21:00:00 21.8 14 Oeste 30 Oeste 0 965 0.6 56
2019-10-04 20:00:00 24.2 18 Oeste 30 Oeste 0 964.7 0.1 51
2019-10-04 19:00:00 27.2 13 Oeste 22 Oeste 0 964.3 -1.1 40
2019-10-04 18:00:00 27.5 5 Oeste 20 Sudoeste 0 964.4 -1.6 36
2019-10-04 17:00:00 27.1 9 Oeste 23 Oeste 0 964.6 -2.3 38
2019-10-04 16:00:00 26.7 7 Noroeste 24 Oeste 0 965.4 -1.8 37
2019-10-04 15:00:00 25.8 9 Noroeste 19 Noroeste 0 966 -1.4 40
2019-10-04 14:00:00 24.6 9 Noroeste 21 Noroeste 0 966.9 -0.6 47
2019-10-04 13:00:00 23.3 8 Oeste 17 Noroeste 0 967.2 0 53
2019-10-04 12:00:00 21.6 6 Norte 15 Norte 0 967.4 0.8 61
2019-10-04 11:00:00 19.4 4 Norte 13 Noroeste 0 967.5 0.9 69
2019-10-04 10:00:00 16.6 5 Sudoeste 8 Sur 0 967.2 0.5 78
2019-10-04 09:00:00 13.3 6 Sur 11 Sudoeste 0 966.6 0.1 86
2019-10-04 08:00:00 12.9 7 Sudoeste 10 Sudoeste 0 966.6 0.2 86
2019-10-04 07:00:00 13.8 8 Sudoeste 11 Oeste 0 966.7 -0.2 83
2019-10-04 06:00:00 14.7 5 Sudoeste 11 Sudoeste 0 966.5 -0.8 82
2019-10-04 05:00:00 15 5 Sur 11 Sudoeste 0 966.4 -1.1 78
2019-10-04 04:00:00 15.3 8 Sudoeste 12 Sur 0 966.9 -0.7 79
2019-10-04 03:00:00 16.4 5 Sur 12 Sudoeste 0 967.3 -0.2 78
2019-10-04 02:00:00 17.3 6 Sudoeste 17 Oeste 0 967.5 0 77
2019-10-04 01:00:00 18 7 Oeste 17 Sudoeste 0 967.6 0.3 74
2019-10-04 00:00:00 19.1 10 Sudoeste 28 Oeste 0 967.5 0.3 69
2019-10-03 23:00:00 20 17 Oeste 32 Sudoeste 0 967.5 0.5 66
2019-10-03 22:00:00 21.2 16 Oeste 29 Oeste 0 967.3 0.3 61
2019-10-03 21:00:00 22.9 15 Oeste 29 Oeste 0 967.2 0.2 50
2019-10-03 20:00:00 25.5 15 Oeste 28 Oeste 0 967 -0.5 34
2019-10-03 19:00:00 27.5 12 Oeste 25 Oeste 0 967 -0.8 19
2019-10-03 18:00:00 27.7 11 Oeste 26 Oeste 0 967 -1.2 18
2019-10-03 17:00:00 27.5 14 Oeste 28 Noroeste 0 967.5 -1.3 19
2019-10-03 16:00:00 26.8 10 Noroeste 23 Noroeste 0 967.8 -1 24
2019-10-03 15:00:00 26.1 11 Noroeste 27 Noroeste 0 968.2 -0.9 22
2019-10-03 14:00:00 24.8 11 Noroeste 24 Noroeste 0 968.8 0 31
2019-10-03 13:00:00 23.3 9 Noroeste 23 Noroeste 0 968.8 0.1 39
2019-10-03 12:00:00 21.8 8 Noroeste 13 Noroeste 0 969.1 1 40
2019-10-03 11:00:00 20.1 4 Oeste 10 Sudoeste 0 968.8 0.6 47
2019-10-03 10:00:00 14.4 6 Sudoeste 13 Sudoeste 0 968.7 1 66
2019-10-03 09:00:00 10.9 7 Sur 10 Sur 0 968.1 0.5 75
2019-10-03 08:00:00 10.9 6 Sur 11 Sur 0 968.2 0.8 74
2019-10-03 07:00:00 11.5 6 Sur 12 Sudoeste 0 967.7 0.3 70
2019-10-03 06:00:00 11.8 7 Sudoeste 10 Sudoeste 0 967.6 0.1 69
2019-10-03 05:00:00 12.5 8 Sur 12 Sudoeste 0 967.4 -0.3 68
2019-10-03 04:00:00 13 6 Sudoeste 8 Sudoeste 0 967.4 -0.5 67
2019-10-03 03:00:00 13.8 6 Sur 9 Sudoeste 0 967.5 -0.4 64
2019-10-03 02:00:00 14.2 6 Sur 8 Sur 0 967.7 0 63
2019-10-03 01:00:00 15.1 6 Sur 9 Sudoeste 0 967.9 0.5 60
2019-10-03 00:00:00 17.4 2 Norte 10 Sudoeste 0 967.9 0.9 55
2019-10-02 23:00:00 18.8 8 Sur 15 Oeste 0 967.7 0.9 52
2019-10-02 22:00:00 20.6 11 Sudoeste 23 Oeste 0 967.4 0.7 47
2019-10-02 21:00:00 22 14 Oeste 26 Oeste 0 967 0.4 42
2019-10-02 20:00:00 24.3 8 Oeste 23 Oeste 0 966.8 0 30
2019-10-02 19:00:00 26 12 Oeste 20 Oeste 0 966.7 -0.4 21
2019-10-02 18:00:00 26.3 11 Oeste 21 Oeste 0 966.6 -0.7 22
2019-10-02 17:00:00 26.1 10 Noroeste 24 Noroeste 0 966.8 -1.2 22
2019-10-02 16:00:00 25.1 9 Oeste 22 Noroeste 0 967.1 -1.4 26
2019-10-02 15:00:00 24.2 9 Noroeste 24 Norte 0 967.3 -1.1 28
2019-10-02 14:00:00 22.7 9 Noroeste 31 Noroeste 0 968 -0.2 33
2019-10-02 13:00:00 20.6 12 Noroeste 26 Noroeste 0 968.5 0.9 42
2019-10-02 12:00:00 17.8 11 Noroeste 21 Oeste 0 968.4 1.3 54
2019-10-02 11:00:00 15.2 14 Noroeste 24 Noroeste 0 968.2 1.3 64
2019-10-02 10:00:00 14.3 11 Oeste 22 Oeste 0 967.6 0.8 69
2019-10-02 09:00:00 11.4 7 Sudoeste 13 Oeste 0 967.1 0.6 83
2019-10-02 08:00:00 11.4 8 Sudoeste 10 Sudoeste 0 966.9 0.3 85
2019-10-02 07:00:00 11.7 6 Sudoeste 9 Sudoeste 0 966.8 -0.2 84
2019-10-02 06:00:00 12.5 5 Sudoeste 17 Oeste 0 966.5 -0.9 82
2019-10-02 05:00:00 12.9 7 Sudoeste 17 Oeste 0 966.6 -0.9 82
2019-10-02 04:00:00 13.6 10 Oeste 22 Noroeste 0 967 -0.5 80
2019-10-02 03:00:00 14.3 15 Oeste 23 Oeste 0 967.4 0 77
2019-10-02 02:00:00 14.6 14 Oeste 31 Oeste 0 967.5 0.5 81
2019-10-02 01:00:00 15.3 17 Oeste 31 Oeste 0 967.5 1.2 79
2019-10-02 00:00:00 16.4 17 Oeste 32 Oeste 0 967.4 1.7 75
2019-10-01 23:00:00 17.9 17 Oeste 33 Oeste 0 967 1.4 68
2019-10-01 22:00:00 19.3 17 Oeste 39 Oeste 0 966.3 1 59
2019-10-01 21:00:00 20.8 22 Oeste 37 Oeste 0 965.7 0.7 53
2019-10-01 20:00:00 22.8 20 Oeste 37 Oeste 0 965.6 0.3 45
2019-10-01 19:00:00 24.4 20 Oeste 34 Oeste 0 965.3 -0.1 41
2019-10-01 18:00:00 25 18 Oeste 37 Oeste 0 965 -0.9 39
2019-10-01 17:00:00 24.9 22 Oeste 40 Noroeste 0 965.3 -0.9 39
2019-10-01 16:00:00 23.8 22 Oeste 40 Oeste 0 965.4 -1 47
2019-10-01 15:00:00 23.5 17 Noroeste 42 Noroeste 0 965.9 -0.6 49
2019-10-01 14:00:00 23 16 Noroeste 39 Noroeste 0 966.2 0 52
2019-10-01 13:00:00 21.7 19 Noroeste 37 Noroeste 0 966.4 0.9 56
2019-10-01 12:00:00 20.4 20 Noroeste 33 Noroeste 0 966.5 2 60
2019-10-01 11:00:00 18.3 18 Noroeste 32 Noroeste 0 966.2 2.1 67
2019-10-01 10:00:00 16.5 13 Oeste 27 Oeste 0 965.5 2 78
2019-10-01 09:00:00 14.9 11 Oeste 18 Oeste 0 964.5 1.1 86
2019-10-01 08:00:00 14.9 7 Noroeste 15 Noroeste 0 964.1 0.9 85
2019-10-01 07:00:00 15.5 4 Sur 17 Oeste 0 963.5 -0.2 82
2019-10-01 06:00:00 16.1 8 Oeste 27 Oeste 0 963.4 -0.4 83
2019-10-01 05:00:00 16.7 16 Oeste 30 Oeste 0 963.2 -1 82
2019-10-01 04:00:00 18.7 15 Sudoeste 28 Sudoeste 0 963.7 -0.7 75
2019-10-01 03:00:00 18.8 5 Sur 9 Oeste 0 963.8 -0.4 73
2019-10-01 02:00:00 19.7 5 Sudoeste 23 Oeste 0 964.2 0.2 71
2019-10-01 01:00:00 20.4 10 Oeste 21 Oeste 0 964.4 0.5 73
2019-10-01 00:00:00 21 8 Sudoeste 17 Oeste 0 964.2 0.7 70
2019-09-30 23:00:00 22.3 10 Sudoeste 18 Sudoeste 0 964 0.4 61
2019-09-30 22:00:00 24.1 12 Sudoeste 23 Sudoeste 0 963.9 0.4 42
2019-09-30 21:00:00 25.6 14 Sudoeste 27 Sudoeste 0 963.5 -0.1 32
2019-09-30 20:00:00 28 10 Sudoeste 27 Sudoeste 0 963.6 -0.3 23
2019-09-30 19:00:00 29.7 13 Sudoeste 30 Sur 0 963.5 -0.9 16
2019-09-30 18:00:00 30.7 15 Sudoeste 28 Sudoeste 0 963.6 -1.3 17
2019-09-30 17:00:00 31.5 13 Sur 25 Sudeste 0 963.9 -1.9 14
2019-09-30 16:00:00 31.2 9 Sudoeste 23 Sudeste 0 964.4 -1.6 18
2019-09-30 15:00:00 30.7 9 Sudeste 22 Este 0 964.9 -1.6 17
2019-09-30 14:00:00 29.6 10 Sur 23 Este 0 965.8 -0.6 18
2019-09-30 13:00:00 28.1 8 Este 21 Nordeste 0 966 -0.1 26
2019-09-30 12:00:00 24.6 7 Noroeste 13 Norte 0 966.5 0.7 42
2019-09-30 11:00:00 22 5 Nordeste 9 Nordeste 0 966.4 0.6 48
2019-09-30 10:00:00 17.9 2 Noroeste 9 Sur 0 966.1 0.5 61
2019-09-30 09:00:00 13.4 7 Sur 9 Sudoeste 0 965.8 0 73
2019-09-30 08:00:00 13.3 7 Sur 9 Sudoeste 0 965.8 -0.1 72
2019-09-30 07:00:00 13.2 7 Sur 9 Sudoeste 0 965.6 -0.8 71
2019-09-30 06:00:00 13.6 7 Sudoeste 10 Sur 0 965.8 -0.8 68
2019-09-30 05:00:00 13.7 8 Sudoeste 10 Sudoeste 0 965.9 -0.8 68
2019-09-30 04:00:00 14.4 6 Sudoeste 10 Sudoeste 0 966.4 -0.3 66
2019-09-30 03:00:00 15.1 7 Sur 9 Sur 0 966.6 -0.2 63
2019-09-30 02:00:00 15.9 6 Sur 9 Sur 0 966.7 -0.1 60
2019-09-30 01:00:00 16.5 6 Sur 9 Sur 0 966.7 0.2 57
2019-09-30 00:00:00 17.6 6 Sudoeste 9 Sudoeste 0 966.8 0.9 52
2019-09-29 23:00:00 21.2 4 Sudoeste 10 Sudoeste 0 966.8 1 49
2019-09-29 22:00:00 22.5 5 Sudoeste 14 Sudoeste 0 966.5 0.7 37
2019-09-29 21:00:00 24.8 6 Sur 12 Sudoeste 0 965.9 -0.1 19
2019-09-29 20:00:00 28 7 Oeste 16 Noroeste 0 965.8 -0.5 15
2019-09-29 19:00:00 29.4 9 Oeste 17 Noroeste 0 965.8 -0.9 13
2019-09-29 18:00:00 30 9 Noroeste 18 Noroeste 0 966 -1.4 13
2019-09-29 17:00:00 29.8 9 Norte 21 Noroeste 0 966.3 -1.7 15
2019-09-29 16:00:00 29.3 8 Oeste 17 Oeste 0 966.7 -1.2 23
2019-09-29 15:00:00 28 8 Oeste 22 Noroeste 0 967.4 -0.6 25
2019-09-29 14:00:00 26.8 12 Noroeste 26 Norte 0 968 0.4 28
2019-09-29 13:00:00 26.4 6 Norte 13 Norte 0 967.9 0.8 29
2019-09-29 12:00:00 23.2 3 Nordeste 15 Norte 0 968 1.5 41
2019-09-29 11:00:00 20.9 4 Norte 9 Noroeste 0 967.6 1.2 46
2019-09-29 10:00:00 16.1 4 Sudoeste 9 Sudoeste 0 967.1 0.9 59
2019-09-29 09:00:00 12.2 7 Sudoeste 10 Sudoeste 0 966.5 0.4 70
2019-09-29 08:00:00 12.3 7 Sudoeste 11 Sur 0 966.4 0.1 71
2019-09-29 07:00:00 13.1 6 Sur 12 Sudoeste 0 966.2 -0.7 69
2019-09-29 06:00:00 13.7 8 Sur 10 Sur 0 966.1 -0.7 67
2019-09-29 05:00:00 14 8 Sur 13 Sudoeste 0 966.3 -0.7 66
2019-09-29 04:00:00 14.4 9 Sudoeste 13 Sudoeste 0 966.9 0 63
2019-09-29 03:00:00 15.3 8 Sudoeste 14 Sudoeste 0 966.8 -0.3 57
2019-09-29 02:00:00 16 10 Sudoeste 13 Sudoeste 0 967 0.3 53
2019-09-29 01:00:00 16.7 8 Sudoeste 13 Sudoeste 0 966.9 0.3 48
2019-09-29 00:00:00 18.9 8 Sur 11 Sudoeste 0 967.1 0.7 42
2019-09-28 23:00:00 19.5 8 Sudoeste 11 Sudoeste 0 966.7 0.6 42
2019-09-28 22:00:00 23.1 7 Sur 10 Sudoeste 0 966.6 0.6 31
2019-09-28 21:00:00 25.9 6 Sudoeste 16 Sudoeste 0 966.4 0.4 28
2019-09-28 20:00:00 28.1 9 Oeste 17 Oeste 0 966.1 -0.4 26
2019-09-28 19:00:00 30.8 7 Sudoeste 21 Sudoeste 0 966 -0.9 20
2019-09-28 18:00:00 30.6 8 Sur 21 Sur 0 966 -1.6 20
2019-09-28 17:00:00 30.7 4 Sur 31 Sudeste 0 966.5 -1.8 20
2019-09-28 16:00:00 30 9 Este 22 Sudeste 0 966.9 -1.8 19
2019-09-28 15:00:00 29.2 12 Sudeste 22 Sudeste 0 967.6 -1.5 22
2019-09-28 14:00:00 28.3 7 Sur 25 Nordeste 0 968.3 -0.7 24
2019-09-28 13:00:00 26.2 6 Nordeste 18 Nordeste 0 968.7 0.3 38
2019-09-28 12:00:00 23.5 8 Nordeste 15 Este 0 969.1 1.2 46
2019-09-28 11:00:00 20.8 5 Nordeste 10 Nordeste 0 969 1.5 54
2019-09-28 10:00:00 16.2 6 Sudoeste 8 Sudoeste 0 968.4 0.8 71
2019-09-28 09:00:00 12.4 6 Sudoeste 9 Sudoeste 0 967.9 0.1 83
2019-09-28 08:00:00 12.2 6 Sur 9 Sur 0 967.5 -0.3 85
2019-09-28 07:00:00 12.4 6 Sur 8 Sudoeste 0 967.6 -0.4 84
2019-09-28 06:00:00 13.1 7 Sur 9 Sudoeste 0 967.8 -0.4 83
2019-09-28 05:00:00 13.8 6 Sur 8 Sur 0 967.8 -0.7 81
2019-09-28 04:00:00 14.2 6 Sur 9 Sur 0 968 -0.5 77
2019-09-28 03:00:00 14.9 6 Sudoeste 9 Sudoeste 0 968.2 -0.3 74
2019-09-28 02:00:00 16.2 6 Sur 10 Sudoeste 0 968.5 0.2 68
2019-09-28 01:00:00 17.8 5 Sur 8 Sudoeste 0 968.5 0.7 65
2019-09-28 00:00:00 19.6 5 Sudoeste 12 Oeste 0 968.5 1.1 60
2019-09-27 23:00:00 21 6 Oeste 19 Oeste 0 968.3 1.3 53
2019-09-27 22:00:00 22.6 12 Oeste 22 Oeste 0 967.8 0.8 43
2019-09-27 21:00:00 24.3 13 Oeste 22 Oeste 0 967.4 0.3 30
2019-09-27 20:00:00 27.4 10 Sudoeste 25 Noroeste 0 967 -0.2 21
2019-09-27 19:00:00 28.6 8 Noroeste 29 Noroeste 0 967 -0.5 19
2019-09-27 18:00:00 29.4 12 Noroeste 26 Noroeste 0 967.1 -1 16
2019-09-27 17:00:00 29.4 10 Noroeste 23 Noroeste 0 967.2 -1.4 15
2019-09-27 16:00:00 29.2 10 Noroeste 23 Noroeste 0 967.5 -1.4 17
2019-09-27 15:00:00 28.5 8 Oeste 25 Noroeste 0 968.1 -1.1 17
2019-09-27 14:00:00 27.2 10 Noroeste 18 Noroeste 0 968.6 -0.3 20
2019-09-27 13:00:00 25.6 9 Noroeste 22 Noroeste 0 968.9 0.5 26
2019-09-27 12:00:00 23.3 6 Noroeste 15 Noroeste 0 969.2 0.9 34
2019-09-27 11:00:00 20.9 6 Noroeste 14 Noroeste 0 968.9 1.2 42
2019-09-27 10:00:00 17.4 5 Sur 13 Sudoeste 0 968.4 0.8 55
2019-09-27 09:00:00 13.2 8 Sudoeste 13 Sudoeste 0 968.3 0.8 70
2019-09-27 08:00:00 12.5 8 Sudoeste 11 Sudoeste 0 967.7 0 74
2019-09-27 07:00:00 13.1 6 Sur 11 Sudoeste 0 967.6 -0.2 72
2019-09-27 06:00:00 13.5 8 Sudoeste 10 Sudoeste 0 967.5 -0.4 71
2019-09-27 05:00:00 14.2 7 Sudoeste 9 Sudoeste 0 967.7 -0.2 70
2019-09-27 04:00:00 14.5 8 Sudoeste 10 Sudoeste 0 967.8 -0.3 69
2019-09-27 03:00:00 15.2 6 Sur 9 Sur 0 967.9 -0.2 67
2019-09-27 02:00:00 15.9 6 Sur 9 Sudoeste 0 967.9 0 65
2019-09-27 01:00:00 16.9 5 Sudoeste 11 Sudoeste 0 968.1 0.6 61
2019-09-27 00:00:00 19.3 6 Sudoeste 12 Sudoeste 0 968.1 1.3 55
2019-09-26 23:00:00 20.8 6 Sur 20 Oeste 0 967.9 1.1 50
2019-09-26 22:00:00 22.4 9 Sudoeste 22 Sudoeste 0 967.5 0.8 40
2019-09-26 21:00:00 24.2 11 Oeste 19 Oeste 0 966.8 0.2 37
2019-09-26 20:00:00 26.2 11 Oeste 24 Noroeste 0 966.8 0 33
2019-09-26 19:00:00 28 10 Oeste 23 Oeste 0 966.7 -0.4 31
2019-09-26 18:00:00 28.3 9 Noroeste 23 Oeste 0 966.6 -1 31
2019-09-26 17:00:00 28.2 10 Oeste 21 Norte 0 966.8 -1.4 31
2019-09-26 16:00:00 27.6 10 Noroeste 24 Oeste 0 967.1 -1.4 33
2019-09-26 15:00:00 27 11 Noroeste 35 Noroeste 0 967.6 -1.1 36
2019-09-26 14:00:00 25.6 8 Oeste 18 Norte 0 968.2 -0.3 39
2019-09-26 13:00:00 24.5 5 Noroeste 16 Noroeste 0 968.5 0.4 42
2019-09-26 12:00:00 22 4 Norte 8 Norte 0 968.7 1.1 49
2019-09-26 11:00:00 19.7 0 Calma 6 Sudoeste 0 968.5 1.3 59
2019-09-26 10:00:00 16.2 4 Sur 7 Sudoeste 0 968.1 1.2 71
2019-09-26 09:00:00 12.5 3 Sudoeste 8 Sudoeste 0 967.6 0.7 82
2019-09-26 08:00:00 12.2 6 Sudoeste 9 Sudoeste 0 967.2 0.2 83
2019-09-26 07:00:00 12.6 6 Sur 10 Sur 0 966.9 -0.2 82
2019-09-26 06:00:00 13.1 7 Sudoeste 10 Sudoeste 0 966.9 -0.5 80
2019-09-26 05:00:00 13.4 7 Sudoeste 10 Sudoeste 0 967 -0.4 79
2019-09-26 04:00:00 13.8 7 Sudoeste 11 Sudoeste 0 967.1 -0.5 76
2019-09-26 03:00:00 14 6 Sudoeste 10 Sudoeste 0 967.4 -0.2 75
2019-09-26 02:00:00 14.7 5 Sur 8 Sur 0 967.4 0.1 73
2019-09-26 01:00:00 16.5 5 Sudoeste 11 Oeste 0 967.6 0.5 67
2019-09-26 00:00:00 17.9 6 Sudoeste 17 Oeste 0 967.6 0.8 62
2019-09-25 23:00:00 18.9 10 Oeste 22 Sudoeste 0 967.3 0.6 58
2019-09-25 22:00:00 20 10 Oeste 19 Oeste 0 967.1 0.6 51
2019-09-25 21:00:00 21.6 11 Oeste 23 Oeste 0 966.8 0.3 44
2019-09-25 20:00:00 23.7 13 Oeste 24 Oeste 0 966.7 -0.5 37
2019-09-25 19:00:00 25 13 Oeste 25 Noroeste 0 966.5 -1.2 33
2019-09-25 18:00:00 24.9 9 Noroeste 24 Noroeste 0 966.5 -1.8 35
2019-09-25 17:00:00 24.4 11 Oeste 35 Oeste 0 967.2 -1.7 35
2019-09-25 16:00:00 24 12 Noroeste 27 Noroeste 0 967.7 -1.6 37
2019-09-25 15:00:00 22.3 13 Noroeste 27 Oeste 0 968.3 -1.2 41
2019-09-25 14:00:00 21 10 Noroeste 25 Noroeste 0 968.9 -0.3 45
2019-09-25 13:00:00 19.8 13 Noroeste 33 Noroeste 0 969.3 0.5 47
2019-09-25 12:00:00 18.3 17 Noroeste 31 Noroeste 0 969.5 1.2 52
2019-09-25 11:00:00 16.4 13 Noroeste 26 Noroeste 0 969.2 1.4 62
2019-09-25 10:00:00 14.7 11 Oeste 21 Oeste 0 968.8 1.1 68
2019-09-25 09:00:00 11.9 5 Sudoeste 11 Sudoeste 0 968.3 0.6 83
2019-09-25 08:00:00 12.3 4 Sudoeste 13 Oeste 0 967.8 0.1 82
2019-09-25 07:00:00 13 7 Oeste 17 Oeste 0 967.7 -0.3 80
2019-09-25 06:00:00 13.4 11 Oeste 17 Oeste 0 967.7 -0.6 85
2019-09-25 05:00:00 14.1 10 Oeste 22 Oeste 0 967.7 -0.6 88
2019-09-25 04:00:00 14.6 13 Oeste 19 Oeste 0 968 -0.6 85
2019-09-25 03:00:00 15.2 11 Oeste 26 Oeste 0 968.3 -0.5 84
2019-09-25 02:00:00 15.7 14 Oeste 23 Oeste 0 968.3 -0.4 84
2019-09-25 01:00:00 16.4 14 Oeste 24 Oeste 0 968.6 0.1 81
2019-09-25 00:00:00 17.2 12 Oeste 24 Oeste 0 968.8 0.8 76
2019-09-24 23:00:00 18.2 13 Oeste 28 Oeste 0 968.7 0.7 70
2019-09-24 22:00:00 19.2 13 Oeste 25 Oeste 0 968.5 0.5 70
2019-09-24 21:00:00 20 8 Sudoeste 20 Sudoeste 0 968 0.1 73
2019-09-24 20:00:00 20.6 11 Oeste 22 Oeste 0 968 -0.1 70
2019-09-24 19:00:00 20.6 13 Oeste 24 Oeste 0 968 -0.4 73
2019-09-24 18:00:00 19.7 12 Oeste 32 Oeste 0 967.9 -0.7 92
2019-09-24 17:00:00 21.9 14 Oeste 32 Oeste 0 968.1 -1.1 78
2019-09-24 16:00:00 23.2 16 Oeste 31 Oeste 0 968.4 -1 67
2019-09-24 15:00:00 23.6 18 Oeste 32 Noroeste 0 968.6 -1.1 65
2019-09-24 14:00:00 23.2 15 Oeste 27 Oeste 0 969.2 -0.5 66
2019-09-24 13:00:00 22.9 10 Sudoeste 22 Sudoeste 0 969.4 0.3 64
2019-09-24 12:00:00 19.8 4 Nordeste 9 Norte 0 969.7 0.8 71
2019-09-24 11:00:00 16.7 4 Nordeste 14 Noroeste 0 969.7 1.1 84
2019-09-24 10:00:00 14.1 3 Sudoeste 14 Oeste 0 969.1 0.8 92
2019-09-24 09:00:00 13.5 4 Noroeste 8 Sur 0 968.9 0.5 84
2019-09-24 08:00:00 13.4 4 Oeste 10 Noroeste 0 968.6 0.1 81
2019-09-24 07:00:00 13.9 4 Sudoeste 12 Oeste 0 968.3 -0.5 74
2019-09-24 06:00:00 15.4 9 Sudoeste 18 Oeste 0 968.4 -0.8 69
2019-09-24 05:00:00 14.6 3 Sur 9 Sudoeste 0 968.5 -0.7 76
2019-09-24 04:00:00 15.4 4 Sudoeste 13 Oeste 0 968.8 -0.7 78
2019-09-24 03:00:00 16 5 Oeste 10 Oeste 0 969.2 -0.3 78
2019-09-24 02:00:00 16.9 3 Sur 15 Oeste 0 969.2 -0.1 74
2019-09-24 01:00:00 17.5 7 Oeste 15 Sudoeste 0 969.5 0.4 72
2019-09-24 00:00:00 17.9 8 Sudoeste 15 Sur 0 969.5 0.8 65
2019-09-23 23:00:00 18.6 9 Sudoeste 14 Sudoeste 0 969.3 0.7 59
2019-09-23 22:00:00 20 6 Sudoeste 14 Oeste 0 969.1 0.6 50
2019-09-23 21:00:00 21.4 8 Oeste 21 Oeste 0 968.7 0.3 45
2019-09-23 20:00:00 23.3 11 Oeste 29 Oeste 0 968.6 0 40
2019-09-23 19:00:00 24.7 13 Oeste 23 Noroeste 0 968.5 -0.3 36
2019-09-23 18:00:00 25.3 12 Oeste 21 Noroeste 0 968.4 -0.5 32
2019-09-23 17:00:00 25 12 Noroeste 23 Noroeste 0 968.6 -1.1 33
2019-09-23 16:00:00 24.7 7 Noroeste 19 Sudoeste 0 968.8 -1.2 34
2019-09-23 15:00:00 23.8 4 Norte 18 Noroeste 0 968.9 -1.4 36
2019-09-23 14:00:00 22.1 5 Sudoeste 18 Noroeste 0 969.7 0 44
2019-09-23 13:00:00 20.1 9 Noroeste 15 Norte 0 970 0.6 53
2019-09-23 12:00:00 18.4 5 Noroeste 11 Noroeste 0 970.3 1.5 56
2019-09-23 11:00:00 17.4 2 Noroeste 6 Sudoeste 0 969.7 1.1 59
2019-09-23 10:00:00 15 2 Nordeste 8 Este 0 969.4 1.3 69
2019-09-23 09:00:00 12.3 6 Sudoeste 11 Sudoeste 0 968.8 1.2 76
2019-09-23 08:00:00 11.5 5 Sur 10 Sudoeste 0 968.6 0.9 80
2019-09-23 07:00:00 11.8 6 Sur 11 Sudoeste 0 968.1 0.4 79
2019-09-23 06:00:00 12.1 6 Sur 11 Sudoeste 0 967.6 -0.5 76
2019-09-23 05:00:00 11.2 7 Sudoeste 9 Sudoeste 0 967.7 -0.1 85
2019-09-23 04:00:00 11.9 6 Sur 9 Sudoeste 0 967.7 -0.1 83
2019-09-23 03:00:00 12.7 6 Sudoeste 10 Sudoeste 0 968.1 0.2 81
2019-09-23 02:00:00 14 5 Sur 10 Sudoeste 0 967.8 0.2 76
2019-09-23 01:00:00 14.7 6 Sur 17 Oeste 0 967.8 0.8 74
2019-09-23 00:00:00 16.1 10 Oeste 18 Oeste 0 967.9 1.5 67
2019-09-22 23:00:00 17 9 Oeste 17 Oeste 0 967.6 1.5 62
2019-09-22 22:00:00 18 10 Sudoeste 17 Sudoeste 0 967 1.4 59
2019-09-22 21:00:00 19.1 9 Oeste 24 Oeste 0 966.4 1.1 56
2019-09-22 20:00:00 20.3 14 Oeste 25 Oeste 0 966.1 0.5 52
2019-09-22 19:00:00 21.5 13 Oeste 26 Oeste 0.2 965.6 0 46
2019-09-22 18:00:00 21.1 15 Oeste 27 Noroeste 0 965.3 -0.4 44
2019-09-22 17:00:00 21.2 19 Oeste 33 Oeste 0 965.6 0.1 44
2019-09-22 16:00:00 20.9 13 Oeste 29 Sudoeste 0 965.6 -0.1 49
2019-09-22 15:00:00 18.9 14 Noroeste 31 Noroeste 0 965.7 0.3 66
2019-09-22 14:00:00 19.7 19 Oeste 31 Oeste 0.2 965.5 0.4 62
2019-09-22 13:00:00 18.1 13 Sudoeste 26 Sudoeste 0 965.7 1.4 72
2019-09-22 12:00:00 16.6 8 Noroeste 17 Noroeste 0 965.4 1.5 85
2019-09-22 11:00:00 16.8 9 Oeste 17 Sudoeste 0.2 965.1 2 81
2019-09-22 10:00:00 15.5 9 Sudoeste 15 Sudoeste 0 964.3 1.8 86
2019-09-22 09:00:00 14 8 Sudoeste 18 Sudoeste 0 963.9 1.7 91
2019-09-22 08:00:00 13.9 8 Sudoeste 21 Sudoeste 0 963.1 1 90
2019-09-22 07:00:00 13.9 12 Oeste 21 Sudoeste 0 962.5 0.3 93
2019-09-22 06:00:00 13.9 9 Oeste 20 Sudoeste 0 962.2 0.3 94
2019-09-22 05:00:00 13.8 11 Oeste 22 Oeste 0.2 962.1 0.8 92
2019-09-22 04:00:00 13.8 13 Oeste 26 Oeste 0 962.2 1.4 90
2019-09-22 03:00:00 14.2 14 Oeste 32 Sudoeste 0 961.9 1.6 87
2019-09-22 02:00:00 15.6 18 Sudoeste 35 Sudoeste 0 961.3 1.1 81
2019-09-22 01:00:00 17.8 16 Sudoeste 34 Sudoeste 0 960.8 1 91
2019-09-22 00:00:00 17.7 18 Sur 36 Sur 0 960.3 0.8 89
2019-09-21 23:00:00 17.5 19 Sur 41 Sur 0.2 960.2 1.1 90
2019-09-21 22:00:00 18.7 8 Sur 33 Sudoeste 0 959.8 0.4 87
2019-09-21 21:00:00 20.5 11 Sudoeste 28 Sur 0 959.5 0 77
2019-09-21 20:00:00 21.6 13 Sur 28 Sudoeste 0.2 959.1 -0.6 71
2019-09-21 19:00:00 21.4 11 Sur 23 Sur 0 959.4 -0.7 75
2019-09-21 18:00:00 20.2 10 Sur 35 Sudoeste 0 959.5 -1.1 83
2019-09-21 17:00:00 21.1 20 Sur 38 Sur 0.2 959.7 -1.3 73
2019-09-21 16:00:00 19.9 18 Sur 35 Sur 0 960.1 -1.2 80
2019-09-21 15:00:00 19.5 13 Sur 29 Sudoeste 0.2 960.6 -0.8 86
2019-09-21 14:00:00 18.7 10 Sur 24 Sudeste 0 961 0 93
2019-09-21 13:00:00 17.9 14 Sur 32 Sudeste 0 961.3 0.9 93
2019-09-21 12:00:00 17.1 16 Sur 32 Sudeste 0.2 961.4 1 93
2019-09-21 11:00:00 16.8 13 Sur 27 Sur 0.2 961 0.7 93
2019-09-21 10:00:00 16.5 14 Sudeste 29 Sudeste 0.4 960.4 0.3 94
2019-09-21 09:00:00 16.8 14 Sudeste 26 Sudeste 0.2 960.4 0.3 93
2019-09-21 08:00:00 16.6 13 Sur 35 Sur 0.2 960.3 -0.4 93
2019-09-21 07:00:00 16.4 13 Sudeste 30 Sudeste 0.2 960.1 -1 91
2019-09-21 06:00:00 16.9 14 Sudeste 28 Sur 0 960.1 -1.6 86
2019-09-21 05:00:00 18.3 15 Sur 26 Sudeste 0 960.7 -0.8 75
2019-09-21 04:00:00 18.6 11 Sur 25 Sur 0 961.1 -0.7 73
2019-09-21 03:00:00 18.3 6 Sur 16 Sudoeste 0 961.7 -0.5 74
2019-09-21 02:00:00 17.6 3 Sur 7 Sur 0 961.5 -0.6 73
2019-09-21 01:00:00 18 5 Sudeste 7 Sudeste 0 961.8 -0.2 73
2019-09-21 00:00:00 18.6 4 Sur 13 Sudoeste 0 962.2 0.7 70
2019-09-20 23:00:00 18.6 6 Sur 11 Sudoeste 0 962.1 0.7 67
2019-09-20 22:00:00 19.6 5 Sudoeste 13 Sudoeste 0 962 0.4 64
2019-09-20 21:00:00 20.8 8 Sudoeste 27 Sur 0 961.5 -0.1 58
2019-09-20 20:00:00 22.6 9 Sur 29 Sudoeste 0 961.4 -0.4 50
2019-09-20 19:00:00 22.9 12 Sudoeste 26 Sur 0 961.6 -0.7 51
2019-09-20 18:00:00 23.1 10 Sur 24 Sudeste 0 961.6 -0.9 51
2019-09-20 17:00:00 22.7 11 Sudeste 25 Sudoeste 0 961.8 -0.6 53
2019-09-20 16:00:00 22.5 15 Sudeste 31 Sudeste 0 962.3 -0.4 56
2019-09-20 15:00:00 24.1 16 Sur 30 Sur 0 962.5 -0.8 49
2019-09-20 14:00:00 25 11 Sudeste 25 Sudeste 0 962.4 -0.9 45
2019-09-20 13:00:00 23.4 10 Sur 24 Sur 0 962.7 -0.4 50
2019-09-20 12:00:00 22.7 14 Sur 22 Sur 0 963.3 0.6 52
2019-09-20 11:00:00 20.7 7 Norte 12 Norte 0 963.3 1.1 61
2019-09-20 10:00:00 17.7 4 Oeste 10 Norte 0 963.1 1 72
2019-09-20 09:00:00 17.6 3 Sur 6 Noroeste 0 962.7 0.4 72
2019-09-20 08:00:00 17.6 4 Este 12 Sudeste 0 962.2 -0.4 73
2019-09-20 07:00:00 18.2 9 Sudeste 13 Sudeste 0 962.1 -0.9 70
2019-09-20 06:00:00 17.1 6 Sur 10 Sudeste 0 962.3 -1.1 73
2019-09-20 05:00:00 17.7 6 Sur 10 Sudeste 0 962.6 -0.6 71
2019-09-20 04:00:00 18.7 3 Noroeste 13 Sudoeste 0 963 -0.4 69
2019-09-20 03:00:00 19.5 9 Sudoeste 16 Sudoeste 0 963.4 -0.4 66
2019-09-20 02:00:00 19.8 5 Oeste 11 Oeste 0 963.2 -0.7 67
2019-09-20 01:00:00 20.8 3 Sudoeste 17 Oeste 0 963.4 -0.2 61
2019-09-20 00:00:00 21.1 6 Oeste 19 Oeste 0 963.8 0.7 59
2019-09-19 23:00:00 22.2 6 Oeste 18 Sudoeste 0 963.9 1.1 52
2019-09-19 22:00:00 22.9 10 Oeste 22 Sudoeste 0 963.6 0.8 49
2019-09-19 21:00:00 24 12 Oeste 24 Oeste 0 963.1 0.1 46
2019-09-19 20:00:00 26 11 Sudoeste 22 Oeste 0 962.8 -0.5 38
2019-09-19 19:00:00 27.6 14 Oeste 34 Sudoeste 0 962.8 -0.9 33
2019-09-19 18:00:00 28.4 10 Sudeste 24 Sudeste 0 963 -1.4 26
2019-09-19 17:00:00 28.8 15 Sudeste 27 Sudeste 0 963.3 -1.6 26
2019-09-19 16:00:00 29.2 11 Sudeste 26 Sudeste 0 963.7 -1.7 29
2019-09-19 15:00:00 28.4 10 Sur 28 Sudeste 0 964.4 -1.1 33
2019-09-19 14:00:00 26.5 10 Noroeste 26 Noroeste 0 964.9 -0.5 41
2019-09-19 13:00:00 25.8 9 Noroeste 21 Noroeste 0 965.4 0.1 44
2019-09-19 12:00:00 24 6 Norte 13 Noroeste 0 965.5 0.7 48
2019-09-19 11:00:00 21.3 4 Nordeste 9 Norte 0 965.4 1 59
2019-09-19 10:00:00 17.1 3 Noroeste 12 Noroeste 0 965.3 1 76
2019-09-19 09:00:00 15.7 5 Sur 8 Sur 0 964.8 0.6 73
2019-09-19 08:00:00 16.3 5 Este 8 Este 0 964.4 0 76
2019-09-19 07:00:00 17.3 2 Sudeste 10 Sur 0 964.3 -0.4 70
2019-09-19 06:00:00 17.8 4 Sur 7 Sur 0 964.2 -0.8 69
2019-09-19 05:00:00 18.7 2 Oeste 9 Sur 0 964.4 -0.7 67
2019-09-19 04:00:00 19.1 2 Sur 6 Sudoeste 0 964.7 -0.4 67
2019-09-19 03:00:00 19.5 4 Sur 12 Sudoeste 0 965 0 67
2019-09-19 02:00:00 19.5 8 Sudoeste 16 Sudoeste 0 965.1 0.3 68
2019-09-19 01:00:00 20.2 6 Sudoeste 21 Sudoeste 0 965.1 0.7 66
2019-09-19 00:00:00 21.3 9 Sudoeste 19 Sudoeste 0 965 1.1 62